Time;durP1;ratioP1;P1;durP2;ratioP2;P2;SDS_P1;SDS_P2;PMS_P1;PMS_P2;Temp;Humidity;BMP_temperature;BMP_pressure;BME280_temperature;BME280_humidity;BME280_pressure;Samples;Min_cycle;Max_cycle;Signal;HPM_P1;HPM_P2
2021/05/18 00:02:13;;;;;;;0.97;0.77;;;;;;;11.20;71.30;96277.81;5093463;28;20204;-68
2021/05/18 00:04:38;;;;;;;0.90;0.60;;;;;;;11.46;70.03;96287.06;5093644;28;20260;-69
2021/05/18 00:07:06;;;;;;;1.10;0.70;;;;;;;11.12;71.54;96277.88;5094051;28;20616;-67
2021/05/18 00:12:16;;;;;;;0.90;0.70;;;;;;;11.20;71.07;96292.72;5108160;28;20420;-70
2021/05/18 00:14:41;;;;;;;0.80;0.60;;;;;;;11.42;71.11;96285.78;5089956;28;20502;-70
2021/05/18 00:17:07;;;;;;;1.30;0.63;;;;;;;11.05;72.15;96287.47;5092635;28;20190;-69
2021/05/18 00:19:32;;;;;;;0.80;0.60;;;;;;;11.11;72.41;96297.22;5085153;28;20205;-69
2021/05/18 00:21:58;;;;;;;1.83;0.70;;;;;;;10.97;72.45;96292.75;5095460;28;20248;-71
2021/05/18 00:24:24;;;;;;;1.87;0.70;;;;;;;11.46;71.90;96287.06;5101035;28;20217;-69
2021/05/18 00:26:49;;;;;;;2.33;0.60;;;;;;;11.47;71.27;96285.25;5085538;28;20179;-70
2021/05/18 00:29:15;;;;;;;1.20;0.70;;;;;;;11.51;71.15;96289.94;5101021;28;20269;-70
2021/05/18 00:31:41;;;;;;;4.40;0.77;;;;;;;11.20;71.22;96283.06;5085778;28;20178;-70
2021/05/18 00:34:06;;;;;;;0.80;0.60;;;;;;;11.78;69.84;96290.31;5083889;28;20206;-69
2021/05/18 00:36:32;;;;;;;0.87;0.60;;;;;;;11.15;71.75;96282.78;5092927;28;20263;-70
2021/05/18 00:38:58;;;;;;;1.30;0.70;;;;;;;11.21;73.16;96297.78;5094010;28;20198;-71
2021/05/18 00:41:24;;;;;;;1.97;0.80;;;;;;;11.29;71.52;96282.97;5093926;28;20428;-69
2021/05/18 00:43:49;;;;;;;1.17;0.60;;;;;;;11.55;71.20;96281.72;5092901;28;20644;-69
2021/05/18 00:46:15;;;;;;;1.47;0.80;;;;;;;11.46;71.18;96292.31;5093349;28;20185;-69
2021/05/18 00:48:56;;;;;;;3.53;0.70;;;;;;;11.56;70.78;96294.66;5093489;28;20201;-69
2021/05/18 00:51:22;;;;;;;0.83;0.70;;;;;;;11.40;71.44;96295.66;5082577;28;20185;-70
2021/05/18 00:53:48;;;;;;;4.23;0.80;;;;;;;11.18;72.74;96300.78;5092642;28;20965;-69
2021/05/18 00:58:45;;;;;;;2.83;0.80;;;;;;;11.03;73.95;96310.41;5093092;28;20197;-70
2021/05/18 01:01:18;;;;;;;1.87;0.70;;;;;;;11.33;72.28;96300.81;5091329;28;20431;-69
2021/05/18 01:03:46;;;;;;;1.60;1.00;;;;;;;10.89;74.06;96312.03;5092609;28;20560;-70
2021/05/18 01:06:28;;;;;;;1.10;0.73;;;;;;;11.10;73.39;96313.94;5093291;28;20467;-69
2021/05/18 01:08:59;;;;;;;1.40;0.87;;;;;;;10.86;74.40;96321.03;5085551;28;20448;-70
2021/05/18 01:11:28;;;;;;;1.63;0.70;;;;;;;11.24;72.67;96314.16;5079431;28;20438;-68
2021/05/18 01:13:58;;;;;;;4.20;0.90;;;;;;;11.44;72.25;96304.81;5093061;28;20452;-70
2021/05/18 01:16:26;;;;;;;1.47;0.93;;;;;;;11.14;73.36;96307.38;5094321;28;20452;-69
2021/05/18 01:18:52;;;;;;;1.37;0.80;;;;;;;11.33;72.72;96307.88;5086475;28;20533;-70
2021/05/18 01:21:17;;;;;;;1.50;0.93;;;;;;;11.33;72.70;96319.16;5092331;28;20523;-70
2021/05/18 01:23:43;;;;;;;1.10;0.80;;;;;;;11.03;73.78;96328.78;5094996;28;20930;-69
2021/05/18 01:26:11;;;;;;;1.27;0.70;;;;;;;11.10;72.99;96324.44;5086270;28;20185;-70
2021/05/18 01:28:37;;;;;;;1.30;0.80;;;;;;;11.14;73.67;96336.22;5088252;28;20454;-70
2021/05/18 01:31:04;;;;;;;1.50;0.93;;;;;;;10.82;74.16;96327.63;5092916;28;20419;-69
2021/05/18 01:33:29;;;;;;;1.60;0.73;;;;;;;11.07;73.46;96332.69;5092841;28;20178;-70
2021/05/18 01:35:58;;;;;;;1.53;0.80;;;;;;;11.05;73.89;96337.28;5092670;28;20419;-71
2021/05/18 01:38:31;;;;;;;1.07;0.80;;;;;;;11.10;73.93;96329.69;5090344;28;20680;-70
2021/05/18 01:43:49;;;;;;;1.00;0.73;;;;;;;10.85;74.86;96329.88;5091163;28;20424;-68
2021/05/18 01:46:14;;;;;;;1.07;0.87;;;;;;;11.22;74.49;96328.25;5092899;28;20447;-69
2021/05/18 01:48:47;;;;;;;1.00;0.87;;;;;;;11.32;73.73;96316.72;5090602;28;20884;-70
2021/05/18 01:51:14;;;;;;;1.10;0.80;;;;;;;11.68;71.91;96300.28;5089909;28;20779;-70
2021/05/18 01:53:40;;;;;;;1.10;0.70;;;;;;;11.76;71.19;96294.94;5091958;28;20547;-69
2021/05/18 01:58:34;;;;;;;2.60;0.90;;;;;;;11.62;71.88;96311.50;5084649;28;20193;-71
2021/05/18 02:01:00;;;;;;;1.50;0.90;;;;;;;11.56;72.11;96314.84;5092592;28;21103;-69
2021/05/18 02:03:25;;;;;;;1.87;1.00;;;;;;;10.87;73.45;96316.63;5092077;28;20202;-70
2021/05/18 02:05:51;;;;;;;1.60;0.87;;;;;;;11.05;73.79;96324.16;5091844;28;20197;-70
2021/05/18 02:08:17;;;;;;;2.43;0.80;;;;;;;10.81;75.33;96326.00;5075401;28;20196;-69
2021/05/18 02:10:42;;;;;;;0.90;0.80;;;;;;;11.36;73.23;96331.94;5092462;28;20182;-70
2021/05/18 02:13:10;;;;;;;1.20;0.80;;;;;;;10.96;75.20;96322.63;5092579;28;20674;-69
2021/05/18 02:20:43;;;;;;;1.53;0.87;;;;;;;11.65;71.96;96327.72;5094710;28;20949;-69
2021/05/18 02:25:53;;;;;;;1.33;0.73;;;;;;;11.46;72.58;96336.09;5091157;28;20926;-69
2021/05/18 02:28:18;;;;;;;0.90;0.80;;;;;;;11.48;71.92;96339.34;5083949;28;20528;-69
2021/05/18 02:30:47;;;;;;;1.00;0.70;;;;;;;11.52;71.58;96336.19;5078897;28;20174;-69
2021/05/18 02:33:13;;;;;;;0.90;0.80;;;;;;;11.55;71.72;96328.97;5090912;28;20241;-70
2021/05/18 02:35:39;;;;;;;1.57;0.83;;;;;;;11.51;71.80;96342.44;5091697;28;20452;-69
2021/05/18 02:38:05;;;;;;;1.10;0.80;;;;;;;11.67;70.77;96344.06;5092149;28;20208;-70
2021/05/18 02:40:34;;;;;;;0.80;0.70;;;;;;;11.82;70.79;96336.22;5085022;28;20206;-68
2021/05/18 02:42:59;;;;;;;2.10;0.90;;;;;;;11.91;70.63;96341.38;5083237;28;20431;-68
2021/05/18 02:50:35;;;;;;;4.30;0.90;;;;;;;11.09;73.00;96349.03;5079694;28;20205;-69
2021/05/18 02:53:00;;;;;;;1.07;0.70;;;;;;;10.89;73.56;96354.75;5083364;28;20447;-68
2021/05/18 02:55:39;;;;;;;0.93;0.73;;;;;;;11.03;73.60;96345.31;5090294;28;20219;-68
2021/05/18 02:58:07;;;;;;;1.00;0.80;;;;;;;11.39;72.50;96349.09;5088271;28;20186;-70
2021/05/18 03:00:33;;;;;;;1.00;0.70;;;;;;;11.44;72.18;96352.03;5083318;28;20470;-69
2021/05/18 03:02:59;;;;;;;6.90;1.17;;;;;;;11.58;71.31;96349.59;5091878;28;20431;-75
2021/05/18 03:05:25;;;;;;;1.73;1.00;;;;;;;11.63;71.26;96352.47;5090466;28;20504;-69
2021/05/18 03:07:52;;;;;;;2.80;1.00;;;;;;;11.30;72.57;96350.19;5091451;28;20210;-69
2021/05/18 03:10:19;;;;;;;6.40;1.20;;;;;;;11.61;71.81;96343.97;5091141;28;20538;-70
2021/05/18 03:12:44;;;;;;;1.47;0.90;;;;;;;11.18;73.28;96353.22;5092500;28;20416;-69
2021/05/18 03:15:11;;;;;;;1.50;0.80;;;;;;;11.42;71.86;96354.00;5081861;28;20483;-69
2021/05/18 03:17:37;;;;;;;1.00;0.80;;;;;;;11.03;73.61;96355.00;5093722;28;20178;-70
2021/05/18 03:20:05;;;;;;;1.53;1.00;;;;;;;10.84;74.56;96354.47;5063783;28;20449;-69
2021/05/18 03:22:31;;;;;;;3.93;1.40;;;;;;;11.31;72.88;96346.56;5076179;28;20419;-70
2021/05/18 03:24:56;;;;;;;1.47;1.03;;;;;;;10.85;74.53;96353.47;5084450;28;20999;-71
2021/05/18 03:27:24;;;;;;;1.40;0.90;;;;;;;11.03;73.35;96349.75;5080356;28;20658;-69
2021/05/18 03:29:50;;;;;;;2.07;1.10;;;;;;;11.03;73.15;96349.75;5069276;28;20281;-69
2021/05/18 03:35:00;;;;;;;5.23;1.63;;;;;;;10.79;73.15;96348.94;5089532;28;20461;-69
2021/05/18 03:38:03;;;;;;;1.10;0.80;;;;;;;10.80;72.93;96347.13;5078471;28;20512;-70
2021/05/18 03:40:18;;;;;;;2.13;1.20;;;;;;;10.76;72.51;96354.53;5061772;28;20791;-70
2021/05/18 03:42:52;;;;;;;6.50;1.90;;;;;;;10.71;72.61;96357.66;5078972;28;20413;-71
2021/05/18 03:45:23;;;;;;;1.07;0.87;;;;;;;10.97;71.12;96355.69;5073649;28;20409;-69
2021/05/18 03:53:29;;;;;;;1.20;1.10;;;;;;;10.63;72.92;96370.00;5074077;28;20946;-70
2021/05/18 03:59:01;;;;;;;1.27;0.90;;;;;;;10.77;72.11;96382.38;5073777;28;20444;-70
2021/05/18 04:04:16;;;;;;;1.43;0.93;;;;;;;10.79;72.09;96374.31;5072790;28;20482;-69
2021/05/18 04:12:29;;;;;;;1.00;0.90;;;;;;;10.81;71.77;96382.81;5081806;28;20423;-69
2021/05/18 04:26:15;;;;;;;1.30;0.80;;;;;;;10.79;71.24;96396.13;5081968;28;20429;-69
2021/05/18 04:48:16;;;;;;;0.87;0.73;;;;;;;10.56;72.40;96435.38;5087438;28;20431;-70
2021/05/18 05:04:03;;;;;;;0.90;0.80;;;;;;;11.00;70.76;96440.06;5072739;28;20466;-69
2021/05/18 05:06:42;;;;;;;3.80;0.90;;;;;;;11.13;70.24;96436.06;5071757;28;20435;-69
2021/05/18 05:14:33;;;;;;;1.20;0.80;;;;;;;11.62;68.87;96434.84;5065687;28;20449;-69
2021/05/18 05:16:59;;;;;;;1.57;1.00;;;;;;;11.41;69.59;96453.84;5080253;28;20936;-70
2021/05/18 05:19:29;;;;;;;1.07;0.97;;;;;;;11.26;69.71;96457.28;5080699;28;20687;-70
2021/05/18 05:21:55;;;;;;;1.30;0.90;;;;;;;11.59;69.07;96458.81;5073135;28;20192;-70
2021/05/18 05:24:21;;;;;;;1.50;0.90;;;;;;;11.40;70.50;96454.88;5085126;28;20423;-69
2021/05/18 05:26:48;;;;;;;1.50;1.07;;;;;;;11.69;70.47;96459.41;5077169;28;20432;-69
2021/05/18 05:29:14;;;;;;;1.93;1.07;;;;;;;12.10;69.08;96458.22;5076658;28;20232;-69
2021/05/18 05:31:40;;;;;;;1.20;1.10;;;;;;;12.17;68.99;96459.09;5081423;28;20495;-70
2021/05/18 05:34:06;;;;;;;1.30;1.07;;;;;;;12.29;68.18;96462.91;5073160;28;20452;-70
2021/05/18 05:36:32;;;;;;;1.50;1.00;;;;;;;12.29;68.09;96454.22;5087120;28;20182;-71
2021/05/18 05:39:04;;;;;;;2.20;1.03;;;;;;;12.37;67.83;96458.59;5067466;28;20901;-70
2021/05/18 05:41:30;;;;;;;1.67;0.83;;;;;;;12.29;68.39;96454.22;5093950;28;20940;-70
2021/05/18 05:43:55;;;;;;;1.90;1.27;;;;;;;12.37;68.58;96462.00;5091866;28;20420;-71
2021/05/18 05:46:21;;;;;;;1.13;1.03;;;;;;;12.03;69.26;96462.56;5080976;28;20184;-71
2021/05/18 05:48:53;;;;;;;0.90;0.80;;;;;;;11.99;69.98;96472.59;5099553;28;20237;-69
2021/05/18 05:51:23;;;;;;;2.57;1.00;;;;;;;11.86;71.47;96470.56;5071458;28;20200;-70
2021/05/18 05:53:49;;;;;;;2.63;1.27;;;;;;;11.53;72.41;96468.19;5094615;28;20469;-71
2021/05/18 05:56:15;;;;;;;1.50;1.40;;;;;;;11.97;71.82;96461.44;5093799;28;21020;-69
2021/05/18 05:58:41;;;;;;;2.03;1.10;;;;;;;12.27;70.61;96474.59;5090635;28;20200;-72
2021/05/18 06:01:07;;;;;;;1.47;1.17;;;;;;;11.92;72.13;96482.16;5093068;28;20427;-68
2021/05/18 06:03:33;;;;;;;2.93;1.37;;;;;;;11.02;75.74;96485.28;5082441;28;20577;-68
2021/05/18 06:05:59;;;;;;;1.93;1.37;;;;;;;11.13;75.77;96476.19;5085244;28;20174;-69
2021/05/18 06:08:24;;;;;;;1.73;1.10;;;;;;;11.37;75.41;96479.63;5088213;28;20424;-69
2021/05/18 06:10:55;;;;;;;2.13;1.60;;;;;;;11.60;74.48;96484.06;5085397;28;20205;-70
2021/05/18 06:13:50;;;;;;;1.73;1.43;;;;;;;11.21;75.75;96489.25;5087089;28;20190;-69
2021/05/18 06:48:30;;;;;;;2.17;1.47;;;;;;;12.64;69.98;96506.25;5089458;28;20419;-69
2021/05/18 06:50:56;;;;;;;1.50;1.40;;;;;;;12.85;67.93;96508.94;5095385;28;20420;-70
2021/05/18 06:53:22;;;;;;;1.50;1.40;;;;;;;13.51;66.91;96505.44;5093051;28;20183;-70
2021/05/18 06:55:49;;;;;;;2.93;2.10;;;;;;;13.60;65.92;96507.94;5080080;28;20457;-67
2021/05/18 06:58:21;;;;;;;2.10;1.73;;;;;;;13.47;65.10;96514.69;5089549;28;20281;-68
2021/05/18 07:00:46;;;;;;;1.20;1.10;;;;;;;13.66;65.24;96517.72;5083332;28;20420;-68
2021/05/18 07:03:19;;;;;;;1.43;1.30;;;;;;;14.03;64.03;96522.88;5066723;28;20977;-71
2021/05/18 07:06:03;;;;;;;6.17;1.30;;;;;;;14.04;64.03;96524.50;5068383;28;20182;-68
2021/05/18 07:11:00;;;;;;;1.70;1.40;;;;;;;14.06;61.87;96523.28;5102109;28;20922;-68
2021/05/18 07:13:26;;;;;;;1.77;1.67;;;;;;;14.15;62.57;96518.72;5091288;28;20430;-69
2021/05/18 07:15:51;;;;;;;8.10;1.37;;;;;;;14.24;62.87;96517.56;5059843;28;20266;-69
2021/05/18 07:18:17;;;;;;;1.40;1.10;;;;;;;14.04;62.92;96517.44;5054447;28;21254;-69
2021/05/18 07:20:43;;;;;;;2.00;1.23;;;;;;;14.12;62.33;96519.91;5091377;28;20224;-68
2021/05/18 07:23:11;;;;;;;2.67;1.10;;;;;;;14.27;61.32;96525.06;5094830;28;20506;-69
2021/05/18 07:25:36;;;;;;;1.80;1.13;;;;;;;13.93;62.97;96529.28;5089760;28;20204;-68
2021/05/18 07:28:09;;;;;;;2.73;1.53;;;;;;;14.95;60.58;96531.56;5095996;28;20457;-69
2021/05/18 07:30:36;;;;;;;1.83;0.90;;;;;;;14.89;60.31;96524.44;5095853;28;20256;-70
2021/05/18 07:33:02;;;;;;;1.40;1.10;;;;;;;15.51;59.68;96517.31;5062917;28;20417;-69
2021/05/18 07:35:28;;;;;;;1.93;1.40;;;;;;;15.73;56.35;96519.81;5095650;28;20524;-68
2021/05/18 07:37:53;;;;;;;3.37;1.03;;;;;;;15.07;57.91;96523.91;5095999;28;20185;-69
2021/05/18 07:40:19;;;;;;;1.00;0.90;;;;;;;14.95;57.50;96515.72;5084089;28;20272;-70
2021/05/18 07:42:45;;;;;;;1.83;1.00;;;;;;;13.96;59.26;96520.19;5096736;28;20261;-69
2021/05/18 07:45:11;;;;;;;2.10;1.23;;;;;;;14.23;59.09;96518.59;5070857;28;20175;-70
2021/05/18 07:47:38;;;;;;;2.90;1.20;;;;;;;14.16;58.92;96520.34;5101728;28;20273;-72
2021/05/18 07:50:08;;;;;;;4.23;1.67;;;;;;;13.86;58.49;96523.13;5098042;28;20464;-69
2021/05/18 08:05:45;;;;;;;4.83;1.73;;;;;;;13.22;61.04;96527.38;5078166;28;20227;-69
2021/05/18 08:08:11;;;;;;;3.20;1.57;;;;;;;13.01;61.42;96528.94;5060416;28;20433;-69
2021/05/18 08:11:10;;;;;;;3.47;1.40;;;;;;;13.43;60.73;96523.97;5081724;28;20447;-69
2021/05/18 08:13:29;;;;;;;2.00;1.37;;;;;;;13.32;61.53;96517.34;5088093;28;20198;-68
2021/05/18 09:37:24;;;;;;;4.53;1.20;;;;;;;15.11;52.45;96495.28;5092397;28;21052;-68
2021/05/18 10:36:46;;;;;;;7.30;2.27;;;;;;;15.23;57.23;96453.31;5094287;28;20428;-70
2021/05/18 10:39:27;;;;;;;2.70;1.00;;;;;;;14.93;53.39;96443.91;5081579;28;20218;-68
2021/05/18 10:41:54;;;;;;;12.37;3.40;;;;;;;15.11;53.95;96443.34;5094944;28;20905;-69
2021/05/18 10:44:20;;;;;;;7.80;1.97;;;;;;;15.55;50.77;96435.91;5095329;28;20431;-68
2021/05/18 10:46:50;;;;;;;2.90;1.03;;;;;;;15.68;51.12;96444.84;5092721;28;20459;-68
2021/05/18 10:49:30;;;;;;;8.63;3.43;;;;;;;16.11;47.71;96445.22;5091385;28;20870;-69
2021/05/18 10:51:59;;;;;;;6.57;1.10;;;;;;;16.80;46.94;96436.88;5092913;28;20428;-69
2021/05/18 10:54:36;;;;;;;5.57;2.90;;;;;;;16.34;49.00;96449.25;5095831;28;20552;-70
2021/05/18 10:57:17;;;;;;;2.73;1.10;;;;;;;15.53;47.94;96448.47;5091402;28;20821;-69
2021/05/18 10:59:43;;;;;;;4.80;1.37;;;;;;;15.61;48.65;96443.00;5089130;28;20606;-68
2021/05/18 11:02:16;;;;;;;1.30;1.00;;;;;;;15.94;47.84;96444.03;5068796;28;20483;-68
2021/05/18 11:04:46;;;;;;;1.97;1.00;;;;;;;15.84;49.04;96446.25;5082231;28;20232;-70
2021/05/18 11:07:13;;;;;;;4.30;1.00;;;;;;;16.26;47.61;96442.34;5092116;28;20424;-69
2021/05/18 11:09:39;;;;;;;2.70;1.03;;;;;;;17.00;47.02;96442.13;5082453;28;20446;-69
2021/05/18 11:12:17;;;;;;;1.43;1.13;;;;;;;16.43;46.67;96447.19;5093034;28;20800;-69
2021/05/18 11:15:01;;;;;;;1.50;0.90;;;;;;;15.91;48.63;96439.97;5085297;28;20503;-69
2021/05/18 11:17:32;;;;;;;2.30;0.80;;;;;;;16.92;45.25;96442.31;5098358;28;20408;-70
2021/05/18 11:20:10;;;;;;;10.00;0.90;;;;;;;17.19;45.68;96436.91;5094470;28;20440;-67
2021/05/18 11:26:04;;;;;;;1.97;0.90;;;;;;;16.38;45.70;96437.22;5086946;28;20921;-68
2021/05/18 11:28:32;;;;;;;1.27;0.90;;;;;;;16.73;45.57;96433.44;5088639;28;20432;-68
2021/05/18 11:31:00;;;;;;;4.23;0.90;;;;;;;18.08;42.68;96428.88;5094804;28;20811;-68
2021/05/18 11:33:34;;;;;;;2.70;1.00;;;;;;;18.11;40.98;96435.59;5094233;28;20445;-68
2021/05/18 11:36:09;;;;;;;4.43;1.00;;;;;;;17.59;46.11;96439.28;5095023;28;20488;-68
2021/05/18 11:38:39;;;;;;;1.30;1.00;;;;;;;15.50;49.55;96465.50;5079057;28;20871;-68
2021/05/18 11:41:05;;;;;;;1.70;1.00;;;;;;;14.70;51.57;96475.88;5090389;28;20423;-69
2021/05/18 11:43:37;;;;;;;5.20;1.87;;;;;;;14.23;53.01;96465.88;5094939;28;20492;-69
2021/05/18 11:46:13;;;;;;;1.47;0.80;;;;;;;14.64;51.83;96456.34;5094525;28;20503;-69
2021/05/18 11:49:02;;;;;;;1.50;0.80;;;;;;;14.59;50.56;96467.50;5093214;28;20791;-69
2021/05/18 11:51:30;;;;;;;3.37;0.80;;;;;;;13.77;52.65;96461.06;5086483;28;20482;-69
2021/05/18 11:54:03;;;;;;;1.20;0.80;;;;;;;13.86;52.42;96467.81;5082750;28;20424;-68
2021/05/18 11:56:31;;;;;;;1.53;1.00;;;;;;;13.91;52.47;96465.44;5095179;28;20427;-69
2021/05/18 11:59:17;;;;;;;1.40;0.90;;;;;;;14.32;52.12;96461.25;5082685;28;20944;-70
2021/05/18 12:01:44;;;;;;;4.70;2.00;;;;;;;14.46;52.56;96462.16;5089197;28;20431;-70
2021/05/18 12:04:11;;;;;;;2.07;1.10;;;;;;;15.39;51.86;96438.91;5074470;28;20420;-70
2021/05/18 12:06:41;;;;;;;6.53;1.80;;;;;;;16.06;48.90;96437.09;5093110;28;20554;-70
2021/05/18 12:09:13;;;;;;;1.33;1.07;;;;;;;15.86;49.12;96428.41;5081104;28;20488;-69
2021/05/18 12:11:39;;;;;;;2.70;1.00;;;;;;;15.16;48.32;96430.34;5092715;28;20511;-69
2021/05/18 12:14:09;;;;;;;6.97;1.40;;;;;;;16.26;49.44;96421.19;5093291;28;20543;-69
2021/05/18 12:16:42;;;;;;;1.60;1.03;;;;;;;17.04;47.77;96403.59;5093084;28;20947;-68
2021/05/18 12:19:10;;;;;;;1.37;0.80;;;;;;;16.80;44.26;96409.59;5093592;28;21173;-69
2021/05/18 12:21:36;;;;;;;5.47;0.90;;;;;;;17.11;45.38;96408.03;5092786;28;20547;-69
2021/05/18 12:24:15;;;;;;;2.90;1.17;;;;;;;16.89;44.30;96403.03;5092749;28;20420;-69
2021/05/18 12:26:53;;;;;;;1.27;0.80;;;;;;;17.57;42.55;96400.78;5074763;28;20196;-69
2021/05/18 12:29:35;;;;;;;1.53;0.77;;;;;;;18.85;41.35;96408.22;5096648;28;20456;-70
2021/05/18 12:32:27;;;;;;;3.60;1.20;;;;;;;16.33;43.35;96397.38;5096110;28;20443;-69
2021/05/18 12:35:17;;;;;;;4.97;1.13;;;;;;;18.18;40.39;96399.22;5077200;28;20466;-69
2021/05/18 12:37:45;;;;;;;2.77;0.90;;;;;;;18.30;41.29;96399.31;5083444;28;20447;-68
2021/05/18 12:40:17;;;;;;;4.97;0.93;;;;;;;17.32;40.42;96391.81;5080117;28;20440;-68
2021/05/18 12:42:44;;;;;;;2.97;0.70;;;;;;;17.00;41.73;96415.66;5093556;28;20787;-69
2021/05/18 12:45:15;;;;;;;3.37;1.13;;;;;;;16.46;42.55;96408.94;5092816;28;20455;-69
2021/05/18 12:47:42;;;;;;;1.93;0.80;;;;;;;16.22;46.21;96413.91;5093843;28;20412;-70
2021/05/18 12:50:12;;;;;;;2.80;0.90;;;;;;;15.89;48.56;96422.69;5091897;28;20447;-68
2021/05/18 12:52:41;;;;;;;2.83;0.87;;;;;;;16.04;48.14;96407.41;5091032;28;20922;-70
2021/05/18 12:55:28;;;;;;;4.17;1.00;;;;;;;16.42;50.15;96405.91;5089347;28;20543;-69
2021/05/18 12:57:59;;;;;;;1.67;0.80;;;;;;;16.48;49.44;96406.91;5075739;28;20412;-68
2021/05/18 13:00:36;;;;;;;4.50;0.90;;;;;;;17.10;47.22;96403.78;5093474;28;20436;-69
2021/05/18 13:03:13;;;;;;;1.90;1.00;;;;;;;16.93;45.23;96396.31;5092255;28;20781;-70
2021/05/18 13:05:40;;;;;;;1.50;0.90;;;;;;;16.63;45.37;96410.09;5093631;28;20473;-68
2021/05/18 13:08:08;;;;;;;6.90;3.73;;;;;;;17.09;45.72;96412.72;5075403;28;20817;-70
2021/05/18 13:11:14;;;;;;;5.33;1.37;;;;;;;16.76;45.35;96413.72;5068574;28;20441;-68
2021/05/18 13:13:28;;;;;;;3.63;1.20;;;;;;;16.71;45.58;96411.66;5064007;28;20422;-70
2021/05/18 13:16:24;;;;;;;3.80;1.30;;;;;;;16.11;46.69;96424.09;5087698;28;20452;-69
2021/05/18 13:19:12;;;;;;;4.10;0.70;;;;;;;16.97;44.29;96404.66;5096618;28;20456;-69
2021/05/18 13:21:49;;;;;;;1.40;0.90;;;;;;;17.46;39.85;96411.03;5076378;28;20420;-68
2021/05/18 13:26:41;;;;;;;1.00;0.67;;;;;;;17.70;39.57;96405.16;5088838;28;20443;-69
2021/05/18 13:29:15;;;;;;;1.97;0.60;;;;;;;16.78;40.24;96401.88;5087707;28;20216;-69
2021/05/18 13:31:41;;;;;;;0.90;0.60;;;;;;;17.78;38.79;96403.03;5087679;28;20443;-72
2021/05/18 13:34:07;;;;;;;1.23;0.60;;;;;;;18.82;37.49;96404.19;5096486;28;20469;-69
2021/05/18 13:36:34;;;;;;;1.20;0.80;;;;;;;19.33;36.69;96403.91;5068048;28;20425;-69
2021/05/18 13:39:08;;;;;;;1.30;0.70;;;;;;;19.29;37.02;96400.91;5054314;28;20514;-69
2021/05/18 13:41:34;;;;;;;2.07;1.00;;;;;;;20.48;35.81;96408.09;5094215;28;20420;-67
2021/05/18 13:44:01;;;;;;;3.40;0.73;;;;;;;20.55;36.23;96400.78;5077335;28;20438;-69
2021/05/18 13:46:27;;;;;;;3.50;1.83;;;;;;;20.24;37.57;96408.13;5096189;28;20427;-68
2021/05/18 13:48:52;;;;;;;2.07;0.80;;;;;;;19.82;38.71;96389.63;5091606;28;20436;-69
2021/05/18 13:51:18;;;;;;;2.03;0.80;;;;;;;18.67;41.51;96391.31;5066535;28;20181;-69
2021/05/18 13:53:44;;;;;;;2.60;1.10;;;;;;;18.81;41.83;96397.25;5091567;28;20174;-69
2021/05/18 13:56:11;;;;;;;2.30;0.80;;;;;;;18.58;42.17;96390.81;5083303;28;20182;-70
2021/05/18 13:58:37;;;;;;;2.90;0.87;;;;;;;16.95;44.99;96404.06;5093007;28;20514;-69
2021/05/18 14:01:07;;;;;;;0.90;0.60;;;;;;;15.78;44.95;96409.06;5093057;28;20914;-69
2021/05/18 14:03:33;;;;;;;2.70;0.70;;;;;;;15.55;44.64;96411.28;5093185;28;20426;-69
2021/05/18 14:05:59;;;;;;;1.43;0.93;;;;;;;15.36;46.36;96411.91;5092574;28;20424;-68
2021/05/18 14:08:37;;;;;;;2.63;0.90;;;;;;;14.81;50.56;96416.44;5071016;28;20513;-67
2021/05/18 14:11:06;;;;;;;1.37;0.70;;;;;;;14.60;50.91;96418.19;5089464;28;20741;-69
2021/05/18 14:13:34;;;;;;;3.00;0.80;;;;;;;15.03;51.86;96411.84;5060516;28;20790;-68
2021/05/18 14:16:01;;;;;;;2.97;0.80;;;;;;;15.89;49.56;96410.28;5076478;28;20446;-68
2021/05/18 14:18:27;;;;;;;1.97;0.97;;;;;;;16.19;47.48;96409.00;5093863;28;20431;-68
2021/05/18 14:20:53;;;;;;;0.90;0.67;;;;;;;15.96;47.44;96411.09;5093216;28;20538;-69
2021/05/18 14:23:23;;;;;;;1.50;0.63;;;;;;;15.94;46.46;96396.47;5092404;28;20465;-71
2021/05/18 14:25:51;;;;;;;1.40;0.90;;;;;;;16.85;43.01;96401.84;5093516;28;20178;-69
2021/05/18 14:28:16;;;;;;;2.07;0.77;;;;;;;16.64;43.35;96406.41;5069497;28;20985;-68
2021/05/18 14:30:42;;;;;;;1.13;0.70;;;;;;;16.16;44.30;96404.97;5092527;28;20440;-69
2021/05/18 14:33:08;;;;;;;1.37;0.77;;;;;;;16.12;44.80;96409.88;5073965;28;20620;-70
2021/05/18 14:35:33;;;;;;;2.23;0.80;;;;;;;15.37;45.49;96407.44;5080148;28;20203;-70
2021/05/18 14:38:11;;;;;;;1.20;0.70;;;;;;;15.29;45.63;96402.34;5087068;28;20194;-68
2021/05/18 14:40:55;;;;;;;2.20;0.73;;;;;;;16.10;44.26;96396.03;5080763;28;20198;-69
2021/05/18 14:46:15;;;;;;;2.70;0.60;;;;;;;16.33;43.24;96384.16;5090626;28;20408;-69
2021/05/18 14:56:50;;;;;;;1.43;0.60;;;;;;;17.13;41.44;96382.97;5083273;28;20411;-68
2021/05/18 14:59:15;;;;;;;1.43;0.80;;;;;;;17.50;41.21;96390.25;5091503;28;20440;-68
2021/05/18 15:01:41;;;;;;;1.50;0.70;;;;;;;16.71;41.75;96401.09;5091260;28;20303;-70
2021/05/18 15:04:06;;;;;;;2.73;2.10;;;;;;;15.25;44.88;96393.22;5074268;28;20514;-68
2021/05/18 15:06:32;;;;;;;1.23;0.77;;;;;;;16.49;42.99;96390.00;5091420;28;20185;-69
2021/05/18 15:08:58;;;;;;;1.27;0.80;;;;;;;16.31;43.55;96375.63;5077293;28;20199;-70
2021/05/18 15:11:24;;;;;;;1.30;0.60;;;;;;;16.83;42.48;96377.44;5082000;28;20201;-70
2021/05/18 15:13:54;;;;;;;1.73;0.93;;;;;;;18.54;39.73;96384.31;5084692;28;20174;-69
2021/05/18 15:16:20;;;;;;;2.47;0.87;;;;;;;19.53;37.11;96370.91;5092116;28;20539;-69
2021/05/18 15:18:50;;;;;;;1.73;0.83;;;;;;;20.37;35.46;96370.63;5094654;28;20788;-70
2021/05/18 15:21:15;;;;;;;3.53;0.90;;;;;;;22.00;33.23;96369.41;5085670;28;20261;-68
2021/05/18 15:23:41;;;;;;;1.33;0.97;;;;;;;22.92;31.15;96368.91;5085139;28;20982;-68
2021/05/18 15:26:07;;;;;;;3.20;0.90;;;;;;;20.50;33.70;96374.06;5081530;28;20174;-69
2021/05/18 15:28:32;;;;;;;1.67;1.10;;;;;;;20.87;33.33;96379.84;5084618;28;20622;-68
2021/05/18 15:30:58;;;;;;;4.83;1.17;;;;;;;20.84;34.00;96374.22;5091312;28;20265;-69
2021/05/18 15:33:25;;;;;;;3.53;0.90;;;;;;;20.08;35.44;96380.41;5087106;28;20288;-69
2021/05/18 15:35:51;;;;;;;2.90;0.80;;;;;;;20.70;34.36;96368.34;5087615;28;20459;-69
2021/05/18 15:38:17;;;;;;;1.73;0.90;;;;;;;19.69;36.24;96375.53;5089146;28;20484;-69
2021/05/18 15:40:44;;;;;;;2.17;0.80;;;;;;;18.94;38.45;96374.25;5083840;28;20225;-68
2021/05/18 15:43:11;;;;;;;3.30;0.90;;;;;;;18.26;39.41;96380.38;5091238;28;20201;-69
2021/05/18 15:45:36;;;;;;;1.50;0.67;;;;;;;18.51;38.62;96387.44;5080964;28;20416;-67
2021/05/18 15:48:04;;;;;;;1.33;0.70;;;;;;;18.66;38.36;96373.78;5090720;28;20432;-69
2021/05/18 15:50:30;;;;;;;2.83;0.80;;;;;;;19.40;36.57;96379.91;5103658;28;20549;-69
2021/05/18 15:52:55;;;;;;;1.67;0.90;;;;;;;19.11;36.62;96374.41;5097269;28;20427;-69
2021/05/18 15:55:21;;;;;;;1.83;0.80;;;;;;;18.83;37.39;96381.13;5095095;28;20209;-68
2021/05/18 15:57:47;;;;;;;1.77;0.97;;;;;;;19.34;37.22;96363.81;5080753;28;20183;-68
2021/05/18 16:00:13;;;;;;;4.33;1.00;;;;;;;18.97;37.94;96361.31;5092782;28;20231;-69
2021/05/18 16:02:39;;;;;;;3.33;1.00;;;;;;;18.10;40.21;96370.34;5093721;28;20186;-68
2021/05/18 16:05:05;;;;;;;2.20;1.53;;;;;;;17.01;42.85;96372.25;5092609;28;20469;-69
2021/05/18 16:07:31;;;;;;;1.50;0.90;;;;;;;15.91;45.61;96381.03;5093594;28;20182;-70
2021/05/18 16:09:56;;;;;;;1.80;0.93;;;;;;;16.80;44.07;96365.44;5081309;28;20447;-70
2021/05/18 16:12:22;;;;;;;1.90;0.73;;;;;;;16.67;44.05;96379.53;5094458;28;20571;-68
2021/05/18 16:14:48;;;;;;;4.07;1.00;;;;;;;16.63;44.61;96381.00;5093617;28;20194;-69
2021/05/18 16:17:16;;;;;;;9.90;2.30;;;;;;;15.52;46.28;96384.28;5092430;28;20188;-69
2021/05/18 16:19:41;;;;;;;2.20;0.90;;;;;;;15.67;45.80;96391.19;5091324;28;20431;-70
2021/05/18 16:22:07;;;;;;;4.97;1.67;;;;;;;16.26;44.69;96388.66;5093456;28;20428;-69
2021/05/18 16:24:34;;;;;;;4.10;2.30;;;;;;;15.97;45.06;96390.78;5088277;28;20171;-69
2021/05/18 16:27:00;;;;;;;1.20;1.10;;;;;;;16.00;45.68;96390.38;5088840;28;20192;-68
2021/05/18 16:29:28;;;;;;;1.30;0.80;;;;;;;15.29;47.71;96391.78;5084075;28;20436;-68
2021/05/18 16:31:53;;;;;;;3.40;0.90;;;;;;;14.87;49.03;96390.09;5093749;28;20427;-70
2021/05/18 16:34:19;;;;;;;3.53;1.10;;;;;;;15.32;48.14;96386.91;5091996;28;20456;-68
2021/05/18 16:36:45;;;;;;;2.40;0.90;;;;;;;15.33;48.41;96393.81;5093023;28;20538;-69
2021/05/18 16:39:11;;;;;;;5.43;1.60;;;;;;;15.76;46.97;96387.31;5080112;28;20207;-68